LiveATC.Net - Listen to live air traffic control over the Internet!


ICAO: KGKT  IATA: GKT   Airport: Gatlinburg-Pigeon Forge Airport
City: Sevierville   State/Province: Tennessee
Country: United States   Continent: North America
KGKT METAR Weather: KGKT 181355Z AUTO 00000KT 10SM CLR 10/07 A3025 RMK A01
KGKT Flight Activity (FlightAware)
KGKT Airport Info   (iFlightPlanner)
KGKT VFR Sectional Chart   (iFlightPlanner) 
KGKT IFR Low Chart   (iFlightPlanner) 

KGKT CTAF
Feed Status: UP   Listeners: 0
Listen in your browser - HTML5 player (in browser, HTML5)
Click here to listen with your own player (launches your MP3 player)
Archive Access: KGKT CTAF
FacilityFrequency
Gatlinburg CTAF123.000

NOTICE

Unauthorized use prohibited. See LiveATC.net Terms of Service


Airport/ARTCC Code
Frequency Search
(e.g., 124.400, 128.75)
Site-wide search
 


Browse Feeds
Top 50 Feeds
HF Oceanic Feeds
Coverage Map
Bad Weather Areas

LiveATC FAQ
Offer LiveATC feed
Contact LiveATC.net
Press Inquiries

LiveATC on iPhone
LiveATC on Android

Windows Phone
Windows 8/10

LiveATC Mobile
(Mobile browser)

ATC Audio Archives
Interesting Recordings

LiveATC Forums


Home Page
About LiveATC.net
Make a Donation
Terms of Use
Privacy Policy

Canadian Air Freqs

AIRMETs/SIGMETs

FAA Airport Status
NAS Status
Arrival Demand


Server Software By:
Icecast.org
Liquidsoap